• Join FlightAware (Why Join?)
  • Login
  • US Flag 
09:05AM EDT


 

Airport Tracker/Info


-or-


 

Live Flight TrackerFlight Track Log ✈ SWA4204 ✈ 05-Apr-2014 ✈ KLAX - KMDW

Flight Track Log - Related Links

Times and Time Zones

All times are in EDT time to prevent confusion due to time zone crossing. See the SWA4204 flight status page for this flight to view local times or setup timezone preferences in your user account.

Time Position Orientation Groundspeed Altitude Reporting Facility
EDT Latitude Longitude Course Direction KTS MPH feet Rate Location/Type
09:21PM 33.9381 -118.4906 54° Northeast 190 219 2,300  Level Los Angeles Center
09:22PM 33.9264 -118.5636 259° West 217 250 5,400 2,940 Climbing Los Angeles Center
09:23PM 33.8797 -118.6061 217° Southwest 252 290 8,400 2,460 Climbing Los Angeles Center
09:24PM 33.8675 -118.5275 101° East 275 316 10,500 2,040 Climbing Los Angeles Center
09:25PM 33.9206 -118.4517 50° Northeast 323 372 12,700 2,700 Climbing Los Angeles Center
09:27PM 34.3332 -117.7169 54° Northeast  Level FlightAware Approximate
09:27PM 33.9753 -118.3589 55° Northeast 331 381 16,100  Level Los Angeles Center
09:28PM 34.0325 -118.2581 56° Northeast 357 411 18,600 2,640 Climbing Los Angeles Center
09:29PM 34.0911 -118.1544 56° Northeast 368 423 21,500 2,520 Climbing Los Angeles Center
09:30PM 34.1497 -118.0500 56° Northeast 372 428 23,800 2,220 Climbing Los Angeles Center
09:31PM 34.2231 -117.9206 56° Northeast 387 445 26,100 1,920 Climbing Los Angeles Center
09:32PM 34.2867 -117.8072 56° Northeast 402 463 27,800 1,560 Climbing Los Angeles Center
09:33PM 34.3522 -117.6889 56° Northeast 419 482 29,400 1,560 Climbing Los Angeles Center
09:34PM 34.4075 -117.5881 56° Northeast 422 486 31,000 780 Climbing Los Angeles Center
09:35PM 34.4844 -117.4489 56° Northeast 418 481 31,000  Level Los Angeles Center
09:36PM 34.5481 -117.3344 56° Northeast 417 480 31,000  Level Los Angeles Center
09:37PM 34.6106 -117.2200 56° Northeast 414 476 31,000  Level Los Angeles Center
09:38PM 34.6728 -117.1058 56° Northeast 412 474 31,000  Level Los Angeles Center
09:39PM 34.7364 -116.9922 56° Northeast 410 472 31,000 -420 Level Los Angeles Center
09:40PM 34.7981 -116.8775 57° Northeast 409 471 30,200 -960 Descending Los Angeles Center
09:41PM 34.8728 -116.7403 56° Northeast 408 470 29,100 -600 Descending Los Angeles Center
09:42PM 34.9353 -116.6250 56° Northeast 408 470 29,000 -60 Descending Los Angeles Center
09:43PM 35.0031 -116.5225 51° Northeast 398 458 29,000  Level Los Angeles Center
09:44PM 35.0783 -116.4300 45° Northeast 386 444 29,000  Level Los Angeles Center
09:45PM 35.1539 -116.3364 45° Northeast 386 444 29,000  Level Los Angeles Center
09:46PM 35.2281 -116.2444 45° Northeast 385 443 29,000  Level Los Angeles Center
09:47PM 35.3006 -116.1511 46° Northeast 381 438 29,000  Level Los Angeles Center
09:48PM 35.3742 -116.0558 47° Northeast 381 438 29,000  Level Los Angeles Center
09:49PM 35.4639 -115.9439 45° Northeast 382 440 29,000  Level Los Angeles Center
09:50PM 35.5350 -115.8575 45° Northeast 382 440 29,000  Level Los Angeles Center
09:51PM 35.6086 -115.7628 46° Northeast 383 441 29,000  Level Los Angeles Center
09:52PM 35.6825 -115.6714 45° Northeast 381 438 29,100 1,260 Climbing Los Angeles Center
09:53PM 35.7428 -115.5289 62° Northeast 399 459 31,700 2,040 Climbing Los Angeles Center
09:54PM 35.7844 -115.4072 67° East 391 450 33,400 1,200 Climbing Los Angeles Center
09:55PM 35.8267 -115.2828 67° East 392 451 34,200 660 Climbing Los Angeles Center
09:56PM 35.8689 -115.1511 68° East 410 472 34,800 780 Climbing Los Angeles Center
09:57PM 35.9150 -115.0144 67° East 428 493 35,800 1,020 Climbing Los Angeles Center
09:58PM 35.9617 -114.8747 68° East 440 506 37,000 540 Climbing Los Angeles Center
09:59PM 36.0067 -114.7358 68° East 441 507 37,000  Level Los Angeles Center
10:00PM 36.0611 -114.5697 68° East 438 504 37,000  Level Los Angeles Center
10:01PM 36.1058 -114.4314 68° East 438 504 37,000  Level Los Angeles Center
10:02PM 36.1503 -114.2911 69° East 437 503 37,000  Level Los Angeles Center
10:03PM 36.1969 -114.1506 68° East 439 505 37,000 240 Level Los Angeles Center
10:04PM 36.2411 -114.0089 69° East 440 506 37,600 780 Climbing Los Angeles Center
10:05PM 36.2869 -113.8661 68° East 448 516 38,600 660 Climbing Los Angeles Center
10:06PM 36.3336 -113.7236 68° East 447 514 39,000 180 Climbing Los Angeles Center
10:07PM 36.3789 -113.5775 69° East 450 518 39,000  Level Los Angeles Center
10:08PM 36.4244 -113.4322 69° East 451 519 39,000  Level Los Angeles Center
10:10PM 36.4806 -113.2556 68° East 458 527 39,000  Level Los Angeles Center
10:11PM 36.5228 -113.1189 69° East 459 528 39,000  Level Los Angeles Center
10:12PM 36.5683 -112.9719 69° East 459 528 39,000  Level Los Angeles Center
10:13PM 36.6139 -112.8239 69° East 459 528 39,000  Level Los Angeles Center
10:14PM 36.6583 -112.6781 69° East 458 527 39,000  Level Los Angeles Center
10:15PM 36.7131 -112.5028 69° East 456 525 39,000  Level Los Angeles Center
10:16PM 36.7572 -112.3542 70° East 457 526 39,000  Level Los Angeles Center
10:17PM 36.8022 -112.2039 69° East 461 531 39,000  Level Los Angeles Center
10:18PM 36.8472 -112.0561 69° East 461 531 39,000  Level Los Angeles Center
10:19PM 36.8914 -111.9053 70° East 461 531 39,000  Level Los Angeles Center
10:20PM 36.9367 -111.7539 69° East 463 533 39,000  Level Los Angeles Center
10:21PM 36.9806 -111.6025 70° East 464 534 39,000  Level Los Angeles Center
10:22PM 37.0347 -111.4194 70° East 465 535 39,000  Level Los Angeles Center
10:23PM 37.0794 -111.2661 70° East 469 540 39,000  Level Los Angeles Center
10:24PM 37.1225 -111.1153 70° East 469 540 39,000  Level Los Angeles Center
10:25PM 37.1839 -110.9025 70° East 467 537 39,000  Level Denver Center
10:26PM 37.2272 -110.7503 70° East 465 535 39,000  Level Denver Center
10:27PM 37.2694 -110.5994 71° East 463 533 39,000  Level Denver Center
10:28PM 37.3133 -110.4489 70° East 462 532 39,000  Level Denver Center
10:29PM 37.3539 -110.2975 71° East 462 532 39,000  Level Denver Center
10:30PM 37.3967 -110.1467 70° East 461 531 39,000  Level Denver Center
10:31PM 37.4450 -109.9739 71° East 462 532 39,000  Level Denver Center
10:32PM 37.4858 -109.8253 71° East 463 533 39,000  Level Denver Center
10:33PM 37.5267 -109.6761 71° East 465 535 39,000  Level Denver Center
10:34PM 37.5756 -109.4997 71° East 470 541 39,000  Level Denver Center
10:35PM 37.6169 -109.3483 71° East 474 545 39,000  Level Denver Center
10:36PM 37.6578 -109.1944 71° East 479 551 39,000  Level Denver Center
10:37PM 37.7058 -109.0144 71° East 483 556 39,000  Level Denver Center
10:38PM 37.7464 -108.8614 71° East 482 555 39,000  Level Denver Center
10:39PM 37.7875 -108.7042 72° East 488 562 39,000  Level Denver Center
10:40PM 37.8350 -108.5269 71° East 478 550 39,000  Level Denver Center
10:41PM 37.8750 -108.3736 72° East 479 551 39,000  Level Denver Center
10:43PM 37.9214 -108.1936 72° East 479 551 39,000  Level Denver Center
10:44PM 37.9608 -108.0375 72° East 482 555 39,000  Level Denver Center
10:45PM 38.0028 -107.8864 71° East 481 554 39,000  Level Denver Center
10:46PM 38.0536 -107.7089 70° East 479 551 39,000  Level Denver Center
10:47PM 38.0936 -107.5647 71° East 480 552 39,000  Level Denver Center
10:48PM 38.1419 -107.3853 71° East 480 552 39,000  Level Denver Center
10:49PM 38.1844 -107.2314 71° East 480 552 39,000  Level Denver Center
10:50PM 38.2297 -107.0678 71° East 480 552 39,000  Level Denver Center
10:51PM 38.2731 -106.9069 71° East 479 551 39,000  Level Denver Center
10:52PM 38.3153 -106.7461 71° East 479 551 39,000  Level Denver Center
10:53PM 38.3589 -106.5850 71° East 480 552 39,000  Level Denver Center
10:54PM 38.4017 -106.4242 71° East 482 555 39,000  Level Denver Center
10:55PM 38.4436 -106.2633 72° East 482 555 39,000  Level Denver Center
10:56PM 38.4886 -106.0889 72° East 482 555 39,000  Level Denver Center
10:57PM 38.5367 -105.9058 71° East 483 556 39,000  Level Denver Center
10:58PM 38.5742 -105.7592 72° East 482 555 39,000  Level Denver Center
10:59PM 38.6164 -105.5964 72° East 482 555 39,000  Level Denver Center
11:00PM 38.6567 -105.4339 72° East 482 555 39,000  Level Denver Center
11:01PM 38.6989 -105.2711 72° East 482 555 39,000  Level Denver Center
11:02PM 38.7397 -105.1111 72° East 481 554 39,000  Level Denver Center
11:03PM 38.7881 -104.9169 72° East 481 554 39,000  Level Denver Center
11:04PM 38.8278 -104.7550 72° East 480 552 39,000  Level Denver Center
11:05PM 38.8683 -104.5906 72° East 486 559 39,000  Level Denver Center
11:06PM 38.9089 -104.4267 72° East 486 559 39,000  Level Denver Center
11:07PM 38.9564 -104.2297 73° East 485 558 39,000  Level Denver Center
11:08PM 38.9964 -104.0639 73° East 486 559 39,000  Level Denver Center
11:09PM 39.0358 -103.8975 73° East 487 560 39,000  Level Denver Center
11:10PM 39.0756 -103.7314 73° East 488 562 39,000  Level Denver Center
11:11PM 39.1242 -103.5289 73° East 493 567 39,000  Level Denver Center
11:12PM 39.1714 -103.3267 73° East 495 570 39,000  Level Denver Center
11:13PM 39.2100 -103.1578 74° East 495 570 39,000  Level Denver Center
11:14PM 39.2494 -102.9886 73° East 495 570 39,000  Level Denver Center
11:15PM 39.2881 -102.8189 74° East 496 571 39,000  Level Denver Center
11:16PM 39.3231 -102.6606 74° East 496 571 39,000  Level Denver Center
11:18PM 39.3656 -102.4786 73° East 495 570 39,000  Level Denver Center
11:19PM 39.4028 -102.3136 74° East 495 570 39,000  Level Denver Center
11:20PM 39.4450 -102.1242 74° East 494 568 39,000  Level Denver Center
11:21PM 39.4797 -101.9589 75° East 495 570 39,000  Level Denver Center
11:22PM 39.5156 -101.7961 74° East 495 570 39,000  Level Denver Center
11:23PM 39.5569 -101.6031 74° East 497 572 39,000  Level Denver Center
11:24PM 39.5936 -101.4378 74° East 498 573 39,000  Level Denver Center
11:25PM 39.6342 -101.2394 75° East 505 581 39,000  Level Denver Center
11:26PM 39.6689 -101.0733 75° East 504 580 39,000  Level Denver Center
11:27PM 39.7036 -100.9081 75° East 502 578 39,000  Level Denver Center
11:28PM 39.7433 -100.7167 75° East 496 571 39,000  Level Denver Center
11:29PM 39.7781 -100.5519 75° East 497 572 39,000  Level Denver Center
11:30PM 39.8111 -100.3886 75° East 493 567 39,000  Level Denver Center
11:31PM 39.8475 -100.2108 75° East 494 568 39,000  Level Denver Center
11:32PM 39.8822 -100.0381 75° East 494 568 39,000  Level Denver Center
11:33PM 39.9167 -99.8636 76° East 498 573 39,000  Level Denver Center
11:34PM 39.9522 -99.6900 75° East 498 573 39,000  Level Denver Center
11:35PM 39.9861 -99.5153 76° East 498 573 39,000  Level Denver Center
11:36PM 40.0211 -99.3017 78° East 500 575 39,000  Level Denver Center
11:37PM 40.0500 -99.1267 78° East 499 574 39,000  Level Denver Center
11:38PM 40.0800 -98.9506 77° East 499 574 39,000  Level Denver Center
11:39PM 40.1097 -98.7744 78° East 499 574 39,000  Level Denver Center
11:40PM 40.1372 -98.5978 78° East 499 574 39,000  Level Denver Center
11:41PM 40.1656 -98.4222 78° East 498 573 39,000  Level Denver Center
11:42PM 40.2061 -98.1742 78° East 498 573 39,000  Level Minneapolis Center
11:43PM 40.2336 -97.9947 79° East 499 574 39,000  Level Minneapolis Center
11:44PM 40.2614 -97.8164 78° East 499 574 39,000  Level Minneapolis Center
11:45PM 40.2897 -97.6367 78° East 503 579 39,000  Level Minneapolis Center
11:46PM 40.3169 -97.4569 79° East 503 579 39,000  Level Minneapolis Center
11:47PM 40.3464 -97.2689 78° East 503 579 39,000  Level Minneapolis Center
11:48PM 40.3719 -97.0894 79° East 503 579 39,000  Level Minneapolis Center
11:49PM 40.3983 -96.9125 79° East 502 578 39,000  Level Minneapolis Center
11:50PM 40.4247 -96.7322 79° East 502 578 39,000  Level Minneapolis Center
11:51PM 40.4506 -96.5519 79° East 502 578 39,000  Level Minneapolis Center
11:52PM 40.4761 -96.3717 79° East 503 579 39,000  Level Minneapolis Center
11:53PM 40.5011 -96.1897 80° East 505 581 39,000  Level Minneapolis Center
11:54PM 40.5275 -96.0069 79° East 507 583 39,000  Level Minneapolis Center
11:55PM 40.5522 -95.8231 80° East 510 587 39,000  Level Minneapolis Center
11:56PM 40.5778 -95.6403 80° East 513 590 39,000  Level Minneapolis Center
11:57PM 40.6025 -95.4583 80° East 513 590 39,000  Level Minneapolis Center
11:58PM 40.6264 -95.2769 80° East 510 587 39,000  Level Minneapolis Center
11:59PM 40.6486 -95.0942 81° East 510 587 39,000  Level Minneapolis Center
12:00AM 40.6731 -94.9106 80° East 510 587 39,000  Level Minneapolis Center
12:01AM 40.6961 -94.7294 80° East 510 587 39,000  Level Minneapolis Center
12:02AM 40.7217 -94.5231 81° East 510 587 39,000  Level Minneapolis Center
12:03AM 40.7447 -94.3417 80° East 509 586 39,000  Level Minneapolis Center
12:04AM 40.7683 -94.1569 80° East 509 586 39,000  Level Minneapolis Center
12:05AM 40.7900 -93.9728 81° East 510 587 39,000  Level Minneapolis Center
12:06AM 40.8111 -93.7894 81° East 510 587 39,000  Level Minneapolis Center
12:07AM 40.8322 -93.6042 81° East 510 587 39,000  Level Minneapolis Center
12:08AM 40.8514 -93.4200 82° East 510 587 39,000  Level Minneapolis Center
12:09AM 40.8608 -93.3072 84° East 513 590 39,000  Level Chicago Center
12:10AM 40.8764 -93.1231 84° East 510 587 39,000  Level Chicago Center
12:11AM 40.8969 -92.8994 83° East 510 587 39,000  Level Chicago Center
12:12AM 40.9136 -92.7142 83° East 510 587 39,000  Level Chicago Center
12:13AM 40.9278 -92.5275 84° East 510 587 39,000  Level Chicago Center
12:14AM 40.9425 -92.3417 84° East 510 587 39,000  Level Chicago Center
12:15AM 40.9578 -92.1558 84° East 510 587 39,000  Level Chicago Center
12:16AM 40.9731 -91.9697 84° East 510 587 39,000  Level Chicago Center
12:17AM 40.9872 -91.7831 84° East 510 587 39,000  Level Chicago Center
12:18AM 40.9997 -91.6178 84° East 511 588 39,000  Level Chicago Center
12:19AM 41.0139 -91.4300 84° East 511 588 39,000  Level Chicago Center
12:20AM 41.0275 -91.2425 84° East 511 588 39,000 -300 Level Chicago Center
12:21AM 41.0392 -91.0547 85° East 513 590 38,500 -780 Descending Chicago Center
12:22AM 41.0533 -90.8633 84° East 516 594 37,500 -960 Descending Chicago Center
12:23AM 41.0661 -90.6739 85° East 518 596 36,600 -960 Descending Chicago Center
12:24AM 41.0836 -90.4828 83° East 518 596 35,600 -1,560 Descending Chicago Center
12:25AM 41.0975 -90.2939 84° East 517 595 33,500 -2,520 Descending Chicago Center
12:26AM 41.1119 -90.1064 84° East 512 589 30,600 -2,700 Descending Chicago Center
12:27AM 41.1256 -89.9208 84° East 503 579 28,100 -2,520 Descending Chicago Center
12:28AM 41.1375 -89.7417 85° East 488 562 25,600 -2,340 Descending Chicago Center
12:29AM 41.1494 -89.5700 85° East 470 541 23,500 -2,100 Descending Chicago Center
12:30AM 41.1606 -89.4078 85° East 443 510 21,400 -2,040 Descending Chicago Center
12:31AM 41.1692 -89.2522 86° East 423 487 19,400 -1,980 Descending Chicago Center
12:32AM 41.2019 -89.1042 74° East 398 458 17,500 -1,620 Descending Chicago Center
12:33AM 41.2456 -88.9775 65° Northeast 382 440 16,200 -1,680 Descending Chicago Center
12:34AM 41.2844 -88.8383 70° East 381 438 14,200 -2,040 Descending Chicago Center
12:35AM 41.3183 -88.7119 70° East 362 417 12,100 -2,040 Descending Chicago Center
12:36AM 41.3514 -88.5922 70° East 345 397 10,200 -1,080 Descending Chicago Center
12:37AM 41.3883 -88.4806 66° East 334 384 10,000 -120 Descending Chicago Center
12:38AM 41.4375 -88.3883 55° Northeast 301 346 10,000 -600 Level Chicago Center
12:39AM 41.4819 -88.2994 56° Northeast 288 331 8,800 -1,320 Descending Chicago Center
12:40AM 41.5258 -88.2128 56° Northeast 283 326 7,400 -1,440 Descending Chicago Center
12:41AM 41.5700 -88.1264 56° Northeast 283 326 6,000 -1,260 Descending Chicago Center
12:42AM 41.6128 -88.0422 56° Northeast 276 318 4,900 -900 Descending Chicago Center
12:43AM 41.6542 -87.9592 56° Northeast 272 313 4,200 -660 Descending Chicago Center
12:44AM 41.6897 -87.8867 57° Northeast 234 269 3,600 -960 Descending Chicago Center
12:45AM 41.7208 -87.8314 53° Northeast 185 213 2,300 -1,140 Descending Chicago Center
12:46AM 41.7525 -87.7919 43° Northeast 156 180 1,400 -900 Descending Chicago Center
12:47AM 41.7786 -87.7586 44° Northeast 144 166 600 -840 Descending Chicago Center
12:49AM 41.7833 -87.7500 37° Northeast  Level FlightAware Approximate